sensor_id;sensor_type;location;lat;lon;timestamp;temperature;humidity
21298;DHT22;10808;48.010;11.326;2023-08-20T00:01:12;23.20;99.90
21298;DHT22;10808;48.010;11.326;2023-08-20T00:03:40;23.20;99.90
21298;DHT22;10808;48.010;11.326;2023-08-20T00:06:06;23.10;99.90
21298;DHT22;10808;48.010;11.326;2023-08-20T00:08:32;23.10;99.90
21298;DHT22;10808;48.010;11.326;2023-08-20T00:10:58;23.00;99.90
21298;DHT22;10808;48.010;11.326;2023-08-20T00:13:24;23.10;99.90
21298;DHT22;10808;48.010;11.326;2023-08-20T00:15:51;23.10;99.90
21298;DHT22;10808;48.010;11.326;2023-08-20T00:18:17;23.10;99.90
21298;DHT22;10808;48.010;11.326;2023-08-20T00:20:43;23.00;99.90
21298;DHT22;10808;48.010;11.326;2023-08-20T00:23:11;23.00;99.90
21298;DHT22;10808;48.010;11.326;2023-08-20T00:25:38;23.00;99.90
21298;DHT22;10808;48.010;11.326;2023-08-20T00:28:04;23.00;99.90
21298;DHT22;10808;48.010;11.326;2023-08-20T00:30:30;23.00;99.90
21298;DHT22;10808;48.010;11.326;2023-08-20T00:32:56;23.00;99.90
21298;DHT22;10808;48.010;11.326;2023-08-20T00:35:22;22.90;99.90
21298;DHT22;10808;48.010;11.326;2023-08-20T00:37:48;22.90;99.90
21298;DHT22;10808;48.010;11.326;2023-08-20T00:40:14;23.00;99.90
21298;DHT22;10808;48.010;11.326;2023-08-20T00:42:40;22.90;99.90
21298;DHT22;10808;48.010;11.326;2023-08-20T00:45:06;23.00;99.90
21298;DHT22;10808;48.010;11.326;2023-08-20T00:47:34;22.90;99.90
21298;DHT22;10808;48.010;11.326;2023-08-20T00:50:01;22.90;99.90
21298;DHT22;10808;48.010;11.326;2023-08-20T00:52:31;22.90;99.90
21298;DHT22;10808;48.010;11.326;2023-08-20T00:54:57;22.90;99.90
21298;DHT22;10808;48.010;11.326;2023-08-20T00:57:24;22.80;99.90
21298;DHT22;10808;48.010;11.326;2023-08-20T00:59:51;22.90;99.90
21298;DHT22;10808;48.010;11.326;2023-08-20T01:02:17;22.80;99.90
21298;DHT22;10808;48.010;11.326;2023-08-20T01:04:45;22.80;99.90
21298;DHT22;10808;48.010;11.326;2023-08-20T01:07:14;22.80;99.90
21298;DHT22;10808;48.010;11.326;2023-08-20T01:12:34;22.80;99.90
21298;DHT22;10808;48.010;11.326;2023-08-20T01:15:01;22.80;99.90
21298;DHT22;10808;48.010;11.326;2023-08-20T01:17:27;22.80;99.90
21298;DHT22;10808;48.010;11.326;2023-08-20T01:19:53;22.70;99.90
21298;DHT22;10808;48.010;11.326;2023-08-20T01:28:29;22.70;99.90
21298;DHT22;10808;48.010;11.326;2023-08-20T01:31:00;22.60;99.90
21298;DHT22;10808;48.010;11.326;2023-08-20T01:33:26;22.60;99.90
21298;DHT22;10808;48.010;11.326;2023-08-20T01:35:54;22.60;99.90
21298;DHT22;10808;48.010;11.326;2023-08-20T01:38:21;22.50;99.90
21298;DHT22;10808;48.010;11.326;2023-08-20T01:40:47;22.50;99.90
21298;DHT22;10808;48.010;11.326;2023-08-20T01:43:14;22.40;99.90
21298;DHT22;10808;48.010;11.326;2023-08-20T01:45:41;22.40;99.90
21298;DHT22;10808;48.010;11.326;2023-08-20T01:48:07;22.40;99.90
21298;DHT22;10808;48.010;11.326;2023-08-20T01:50:34;22.30;99.90
21298;DHT22;10808;48.010;11.326;2023-08-20T01:53:01;22.30;99.90
21298;DHT22;10808;48.010;11.326;2023-08-20T01:55:28;22.20;99.90
21298;DHT22;10808;48.010;11.326;2023-08-20T01:57:54;22.20;99.90
21298;DHT22;10808;48.010;11.326;2023-08-20T02:00:20;22.10;99.90
21298;DHT22;10808;48.010;11.326;2023-08-20T02:02:46;22.10;99.90
21298;DHT22;10808;48.010;11.326;2023-08-20T02:05:12;22.10;99.90
21298;DHT22;10808;48.010;11.326;2023-08-20T02:07:38;22.10;99.90
21298;DHT22;10808;48.010;11.326;2023-08-20T02:10:05;22.00;99.90
21298;DHT22;10808;48.010;11.326;2023-08-20T02:12:31;22.00;99.90
21298;DHT22;10808;48.010;11.326;2023-08-20T02:14:57;21.90;99.90
21298;DHT22;10808;48.010;11.326;2023-08-20T02:17:23;21.90;99.90
21298;DHT22;10808;48.010;11.326;2023-08-20T02:19:49;21.90;99.90
21298;DHT22;10808;48.010;11.326;2023-08-20T02:22:15;21.80;99.90
21298;DHT22;10808;48.010;11.326;2023-08-20T02:24:41;21.80;99.90
21298;DHT22;10808;48.010;11.326;2023-08-20T02:27:07;21.80;99.90
21298;DHT22;10808;48.010;11.326;2023-08-20T02:29:33;21.70;99.90
21298;DHT22;10808;48.010;11.326;2023-08-20T02:31:59;21.70;99.90
21298;DHT22;10808;48.010;11.326;2023-08-20T02:34:25;21.70;99.90
21298;DHT22;10808;48.010;11.326;2023-08-20T02:36:51;21.60;99.90
21298;DHT22;10808;48.010;11.326;2023-08-20T02:39:17;21.60;99.90
21298;DHT22;10808;48.010;11.326;2023-08-20T02:41:43;21.60;99.90
21298;DHT22;10808;48.010;11.326;2023-08-20T02:44:09;21.50;99.90
21298;DHT22;10808;48.010;11.326;2023-08-20T02:46:35;21.50;99.90
21298;DHT22;10808;48.010;11.326;2023-08-20T02:49:04;21.50;99.90
21298;DHT22;10808;48.010;11.326;2023-08-20T02:51:30;21.50;99.90
21298;DHT22;10808;48.010;11.326;2023-08-20T02:53:56;21.40;99.90
21298;DHT22;10808;48.010;11.326;2023-08-20T02:56:22;21.40;99.90
21298;DHT22;10808;48.010;11.326;2023-08-20T02:58:48;21.40;99.90
21298;DHT22;10808;48.010;11.326;2023-08-20T03:01:24;21.30;99.90
21298;DHT22;10808;48.010;11.326;2023-08-20T03:03:51;21.30;99.90
21298;DHT22;10808;48.010;11.326;2023-08-20T03:06:17;21.20;99.90
21298;DHT22;10808;48.010;11.326;2023-08-20T03:08:43;21.20;99.90
21298;DHT22;10808;48.010;11.326;2023-08-20T03:11:09;21.20;99.90
21298;DHT22;10808;48.010;11.326;2023-08-20T03:13:35;21.10;99.90
21298;DHT22;10808;48.010;11.326;2023-08-20T03:16:01;21.10;99.90
21298;DHT22;10808;48.010;11.326;2023-08-20T03:18:29;21.10;99.90
21298;DHT22;10808;48.010;11.326;2023-08-20T03:20:55;21.00;99.90
21298;DHT22;10808;48.010;11.326;2023-08-20T03:23:22;21.00;99.90
21298;DHT22;10808;48.010;11.326;2023-08-20T03:25:49;21.00;99.90
21298;DHT22;10808;48.010;11.326;2023-08-20T03:28:15;20.90;99.90
21298;DHT22;10808;48.010;11.326;2023-08-20T03:30:41;20.90;99.90
21298;DHT22;10808;48.010;11.326;2023-08-20T03:33:07;20.90;99.90
21298;DHT22;10808;48.010;11.326;2023-08-20T03:35:33;20.90;99.90
21298;DHT22;10808;48.010;11.326;2023-08-20T03:37:59;20.80;99.90
21298;DHT22;10808;48.010;11.326;2023-08-20T03:40:27;20.80;99.90
21298;DHT22;10808;48.010;11.326;2023-08-20T03:42:54;20.80;99.90
21298;DHT22;10808;48.010;11.326;2023-08-20T03:45:20;20.80;99.90
21298;DHT22;10808;48.010;11.326;2023-08-20T03:47:46;20.70;99.90
21298;DHT22;10808;48.010;11.326;2023-08-20T03:50:12;20.70;99.90
21298;DHT22;10808;48.010;11.326;2023-08-20T03:52:38;20.70;99.90
21298;DHT22;10808;48.010;11.326;2023-08-20T03:55:06;20.60;99.90
21298;DHT22;10808;48.010;11.326;2023-08-20T03:57:32;20.60;99.90
21298;DHT22;10808;48.010;11.326;2023-08-20T03:59:58;20.60;99.90
21298;DHT22;10808;48.010;11.326;2023-08-20T04:02:24;20.60;99.90
21298;DHT22;10808;48.010;11.326;2023-08-20T04:04:50;20.50;99.90
21298;DHT22;10808;48.010;11.326;2023-08-20T04:07:17;20.60;99.90
21298;DHT22;10808;48.010;11.326;2023-08-20T04:09:43;20.60;99.90
21298;DHT22;10808;48.010;11.326;2023-08-20T04:12:09;20.60;99.90
21298;DHT22;10808;48.010;11.326;2023-08-20T04:14:35;20.50;99.90
21298;DHT22;10808;48.010;11.326;2023-08-20T04:17:02;20.50;99.90
21298;DHT22;10808;48.010;11.326;2023-08-20T04:19:28;20.50;99.90
21298;DHT22;10808;48.010;11.326;2023-08-20T04:21:54;20.50;99.90
21298;DHT22;10808;48.010;11.326;2023-08-20T04:24:20;20.50;99.90
21298;DHT22;10808;48.010;11.326;2023-08-20T04:26:46;20.50;99.90
21298;DHT22;10808;48.010;11.326;2023-08-20T04:29:12;20.40;99.90
21298;DHT22;10808;48.010;11.326;2023-08-20T04:31:38;20.40;99.90
21298;DHT22;10808;48.010;11.326;2023-08-20T04:34:04;20.40;99.90
21298;DHT22;10808;48.010;11.326;2023-08-20T04:36:30;20.40;99.90
21298;DHT22;10808;48.010;11.326;2023-08-20T04:38:56;20.40;99.90
21298;DHT22;10808;48.010;11.326;2023-08-20T04:41:22;20.40;99.90
21298;DHT22;10808;48.010;11.326;2023-08-20T04:43:48;20.40;99.90
21298;DHT22;10808;48.010;11.326;2023-08-20T04:46:14;20.40;99.90
21298;DHT22;10808;48.010;11.326;2023-08-20T04:48:40;20.30;99.90
21298;DHT22;10808;48.010;11.326;2023-08-20T04:51:07;20.40;99.90
21298;DHT22;10808;48.010;11.326;2023-08-20T04:53:33;20.30;99.90
21298;DHT22;10808;48.010;11.326;2023-08-20T04:55:59;20.40;99.90
21298;DHT22;10808;48.010;11.326;2023-08-20T04:58:25;20.40;99.90
21298;DHT22;10808;48.010;11.326;2023-08-20T05:00:51;20.40;99.90
21298;DHT22;10808;48.010;11.326;2023-08-20T05:03:17;20.40;99.90
21298;DHT22;10808;48.010;11.326;2023-08-20T05:05:48;20.40;99.90
21298;DHT22;10808;48.010;11.326;2023-08-20T05:08:15;20.40;99.90
21298;DHT22;10808;48.010;11.326;2023-08-20T05:10:41;20.40;99.90
21298;DHT22;10808;48.010;11.326;2023-08-20T05:13:07;20.40;99.90
21298;DHT22;10808;48.010;11.326;2023-08-20T05:15:33;20.40;99.90
21298;DHT22;10808;48.010;11.326;2023-08-20T05:17:59;20.50;99.90
21298;DHT22;10808;48.010;11.326;2023-08-20T05:20:25;20.50;99.90
21298;DHT22;10808;48.010;11.326;2023-08-20T05:22:51;20.50;99.90
21298;DHT22;10808;48.010;11.326;2023-08-20T05:25:17;20.60;99.90
21298;DHT22;10808;48.010;11.326;2023-08-20T05:27:43;20.70;99.90
21298;DHT22;10808;48.010;11.326;2023-08-20T05:30:10;20.80;99.90
21298;DHT22;10808;48.010;11.326;2023-08-20T05:32:36;20.90;99.90
21298;DHT22;10808;48.010;11.326;2023-08-20T05:35:02;21.00;99.90
21298;DHT22;10808;48.010;11.326;2023-08-20T05:37:30;21.10;99.90
21298;DHT22;10808;48.010;11.326;2023-08-20T05:39:56;21.20;99.90
21298;DHT22;10808;48.010;11.326;2023-08-20T05:42:22;21.30;99.90
21298;DHT22;10808;48.010;11.326;2023-08-20T05:44:48;21.50;99.90
21298;DHT22;10808;48.010;11.326;2023-08-20T05:47:14;21.60;99.90
21298;DHT22;10808;48.010;11.326;2023-08-20T05:49:40;21.70;99.90
21298;DHT22;10808;48.010;11.326;2023-08-20T05:52:06;21.90;99.90
21298;DHT22;10808;48.010;11.326;2023-08-20T05:54:32;22.10;99.90
21298;DHT22;10808;48.010;11.326;2023-08-20T05:56:58;22.20;99.90
21298;DHT22;10808;48.010;11.326;2023-08-20T05:59:24;22.40;99.90
21298;DHT22;10808;48.010;11.326;2023-08-20T06:01:52;22.60;99.90
21298;DHT22;10808;48.010;11.326;2023-08-20T06:04:19;22.80;99.90
21298;DHT22;10808;48.010;11.326;2023-08-20T06:06:45;22.90;99.90
21298;DHT22;10808;48.010;11.326;2023-08-20T06:09:11;23.00;99.90
21298;DHT22;10808;48.010;11.326;2023-08-20T06:11:37;23.20;99.90
21298;DHT22;10808;48.010;11.326;2023-08-20T06:14:03;23.40;99.90
21298;DHT22;10808;48.010;11.326;2023-08-20T06:16:29;23.60;99.90
21298;DHT22;10808;48.010;11.326;2023-08-20T06:18:55;23.70;99.90
21298;DHT22;10808;48.010;11.326;2023-08-20T06:21:21;23.90;99.90
21298;DHT22;10808;48.010;11.326;2023-08-20T06:23:47;24.10;99.90
21298;DHT22;10808;48.010;11.326;2023-08-20T06:26:13;24.20;99.90
21298;DHT22;10808;48.010;11.326;2023-08-20T06:28:39;24.40;99.90
21298;DHT22;10808;48.010;11.326;2023-08-20T06:31:06;24.60;99.90
21298;DHT22;10808;48.010;11.326;2023-08-20T06:33:31;24.80;99.90
21298;DHT22;10808;48.010;11.326;2023-08-20T06:35:58;24.90;99.90
21298;DHT22;10808;48.010;11.326;2023-08-20T06:38:24;25.10;99.90
21298;DHT22;10808;48.010;11.326;2023-08-20T06:40:50;25.30;99.90
21298;DHT22;10808;48.010;11.326;2023-08-20T06:43:16;25.60;99.90
21298;DHT22;10808;48.010;11.326;2023-08-20T06:45:42;25.80;99.90
21298;DHT22;10808;48.010;11.326;2023-08-20T06:48:08;26.10;99.90
21298;DHT22;10808;48.010;11.326;2023-08-20T06:50:34;26.30;99.90
21298;DHT22;10808;48.010;11.326;2023-08-20T06:53:00;26.60;99.90
21298;DHT22;10808;48.010;11.326;2023-08-20T06:55:26;26.80;99.90
21298;DHT22;10808;48.010;11.326;2023-08-20T06:57:52;27.10;99.90
21298;DHT22;10808;48.010;11.326;2023-08-20T07:00:18;27.20;99.90
21298;DHT22;10808;48.010;11.326;2023-08-20T07:02:45;27.50;99.90
21298;DHT22;10808;48.010;11.326;2023-08-20T07:05:11;27.80;99.90
21298;DHT22;10808;48.010;11.326;2023-08-20T07:07:37;28.10;99.90
21298;DHT22;10808;48.010;11.326;2023-08-20T07:10:03;28.30;99.90
21298;DHT22;10808;48.010;11.326;2023-08-20T07:12:29;28.60;99.90
21298;DHT22;10808;48.010;11.326;2023-08-20T07:14:55;28.80;99.90
21298;DHT22;10808;48.010;11.326;2023-08-20T07:17:21;29.00;99.20
21298;DHT22;10808;48.010;11.326;2023-08-20T07:19:47;29.40;98.50
21298;DHT22;10808;48.010;11.326;2023-08-20T07:22:13;29.50;98.10
21298;DHT22;10808;48.010;11.326;2023-08-20T07:24:39;29.70;97.30
21298;DHT22;10808;48.010;11.326;2023-08-20T07:27:05;30.00;96.80
21298;DHT22;10808;48.010;11.326;2023-08-20T07:29:36;30.30;96.40
21298;DHT22;10808;48.010;11.326;2023-08-20T07:32:03;30.40;95.60
21298;DHT22;10808;48.010;11.326;2023-08-20T07:34:30;30.80;96.50
21298;DHT22;10808;48.010;11.326;2023-08-20T07:37:00;31.20;96.00
21298;DHT22;10808;48.010;11.326;2023-08-20T07:39:27;31.50;95.20
21298;DHT22;10808;48.010;11.326;2023-08-20T07:41:53;31.80;94.30
21298;DHT22;10808;48.010;11.326;2023-08-20T07:44:19;31.90;93.80
21298;DHT22;10808;48.010;11.326;2023-08-20T07:46:45;32.10;93.30
21298;DHT22;10808;48.010;11.326;2023-08-20T07:49:11;32.50;93.30
21298;DHT22;10808;48.010;11.326;2023-08-20T07:51:37;32.80;91.80
21298;DHT22;10808;48.010;11.326;2023-08-20T07:54:03;32.90;89.50
21298;DHT22;10808;48.010;11.326;2023-08-20T07:56:29;32.70;88.40
21298;DHT22;10808;48.010;11.326;2023-08-20T07:59:03;32.70;86.50
21298;DHT22;10808;48.010;11.326;2023-08-20T08:01:30;32.90;90.10
21298;DHT22;10808;48.010;11.326;2023-08-20T08:03:59;33.20;86.60
21298;DHT22;10808;48.010;11.326;2023-08-20T08:06:25;33.40;88.30
21298;DHT22;10808;48.010;11.326;2023-08-20T08:08:51;33.70;84.40
21298;DHT22;10808;48.010;11.326;2023-08-20T08:11:17;33.80;81.30
21298;DHT22;10808;48.010;11.326;2023-08-20T08:13:43;34.20;82.40
21298;DHT22;10808;48.010;11.326;2023-08-20T08:16:09;34.60;82.70
21298;DHT22;10808;48.010;11.326;2023-08-20T08:18:35;34.80;77.80
21298;DHT22;10808;48.010;11.326;2023-08-20T08:21:01;34.70;78.20
21298;DHT22;10808;48.010;11.326;2023-08-20T08:23:27;35.20;83.00
21298;DHT22;10808;48.010;11.326;2023-08-20T08:25:53;35.80;80.20
21298;DHT22;10808;48.010;11.326;2023-08-20T08:28:19;36.20;81.70
21298;DHT22;10808;48.010;11.326;2023-08-20T08:30:45;36.60;77.00
21298;DHT22;10808;48.010;11.326;2023-08-20T08:33:12;36.80;74.50
21298;DHT22;10808;48.010;11.326;2023-08-20T08:35:38;36.70;75.00
21298;DHT22;10808;48.010;11.326;2023-08-20T08:38:04;36.80;70.90
21298;DHT22;10808;48.010;11.326;2023-08-20T08:40:30;36.70;72.20
21298;DHT22;10808;48.010;11.326;2023-08-20T08:42:57;36.80;74.10
21298;DHT22;10808;48.010;11.326;2023-08-20T08:45:23;37.40;74.30
21298;DHT22;10808;48.010;11.326;2023-08-20T08:47:54;37.80;74.00
21298;DHT22;10808;48.010;11.326;2023-08-20T08:50:21;38.10;71.40
21298;DHT22;10808;48.010;11.326;2023-08-20T08:52:47;38.00;69.60
21298;DHT22;10808;48.010;11.326;2023-08-20T08:55:16;38.30;69.60
21298;DHT22;10808;48.010;11.326;2023-08-20T08:57:42;38.60;71.40
21298;DHT22;10808;48.010;11.326;2023-08-20T09:00:08;38.90;66.90
21298;DHT22;10808;48.010;11.326;2023-08-20T09:02:35;38.90;65.50
21298;DHT22;10808;48.010;11.326;2023-08-20T09:05:01;38.70;65.10
21298;DHT22;10808;48.010;11.326;2023-08-20T09:07:27;38.90;67.20
21298;DHT22;10808;48.010;11.326;2023-08-20T09:09:58;39.20;68.00
21298;DHT22;10808;48.010;11.326;2023-08-20T09:12:25;39.40;66.40
21298;DHT22;10808;48.010;11.326;2023-08-20T09:14:52;39.90;66.70
21298;DHT22;10808;48.010;11.326;2023-08-20T09:17:20;40.20;62.10
21298;DHT22;10808;48.010;11.326;2023-08-20T09:19:46;40.20;64.20
21298;DHT22;10808;48.010;11.326;2023-08-20T09:22:13;40.30;63.80
21298;DHT22;10808;48.010;11.326;2023-08-20T09:24:46;40.60;62.00
21298;DHT22;10808;48.010;11.326;2023-08-20T09:27:13;40.90;64.10
21298;DHT22;10808;48.010;11.326;2023-08-20T09:29:49;41.20;60.30
21298;DHT22;10808;48.010;11.326;2023-08-20T09:32:19;41.20;62.10
21298;DHT22;10808;48.010;11.326;2023-08-20T09:34:47;41.50;58.90
21298;DHT22;10808;48.010;11.326;2023-08-20T09:37:14;41.70;61.10
21298;DHT22;10808;48.010;11.326;2023-08-20T09:39:40;41.70;57.80
21298;DHT22;10808;48.010;11.326;2023-08-20T09:42:07;41.40;58.30
21298;DHT22;10808;48.010;11.326;2023-08-20T09:44:35;41.30;59.50
21298;DHT22;10808;48.010;11.326;2023-08-20T09:47:02;41.80;62.30
21298;DHT22;10808;48.010;11.326;2023-08-20T09:49:35;41.90;56.40
21298;DHT22;10808;48.010;11.326;2023-08-20T09:52:04;41.90;57.50
21298;DHT22;10808;48.010;11.326;2023-08-20T09:57:41;42.40;57.00
21298;DHT22;10808;48.010;11.326;2023-08-20T10:00:09;42.70;56.50
21298;DHT22;10808;48.010;11.326;2023-08-20T10:02:36;43.00;57.10
21298;DHT22;10808;48.010;11.326;2023-08-20T10:05:05;43.40;57.10
21298;DHT22;10808;48.010;11.326;2023-08-20T10:07:31;43.40;54.50
21298;DHT22;10808;48.010;11.326;2023-08-20T10:10:03;43.30;54.30
21298;DHT22;10808;48.010;11.326;2023-08-20T10:12:30;42.90;53.20
21298;DHT22;10808;48.010;11.326;2023-08-20T10:14:57;42.20;53.60
21298;DHT22;10808;48.010;11.326;2023-08-20T10:17:24;42.20;55.60
21298;DHT22;10808;48.010;11.326;2023-08-20T10:19:53;42.20;55.60
21298;DHT22;10808;48.010;11.326;2023-08-20T10:22:20;42.40;57.70
21298;DHT22;10808;48.010;11.326;2023-08-20T10:24:51;42.50;57.30
21298;DHT22;10808;48.010;11.326;2023-08-20T10:27:25;42.50;54.70
21298;DHT22;10808;48.010;11.326;2023-08-20T10:29:55;42.50;55.90
21298;DHT22;10808;48.010;11.326;2023-08-20T10:35:15;43.00;55.10
21298;DHT22;10808;48.010;11.326;2023-08-20T10:43:29;43.30;53.80
21298;DHT22;10808;48.010;11.326;2023-08-20T10:48:40;43.70;54.10
21298;DHT22;10808;48.010;11.326;2023-08-20T10:51:14;43.70;52.40
21298;DHT22;10808;48.010;11.326;2023-08-20T10:54:04;44.10;53.30
21298;DHT22;10808;48.010;11.326;2023-08-20T10:56:44;44.30;50.90
21298;DHT22;10808;48.010;11.326;2023-08-20T10:59:20;44.40;52.40
21298;DHT22;10808;48.010;11.326;2023-08-20T11:01:49;45.00;52.80
21298;DHT22;10808;48.010;11.326;2023-08-20T11:04:16;45.30;48.10
21298;DHT22;10808;48.010;11.326;2023-08-20T11:06:43;45.20;49.20
21298;DHT22;10808;48.010;11.326;2023-08-20T11:09:09;45.10;52.70
21298;DHT22;10808;48.010;11.326;2023-08-20T11:11:39;45.30;50.90
21298;DHT22;10808;48.010;11.326;2023-08-20T11:14:08;45.50;48.50
21298;DHT22;10808;48.010;11.326;2023-08-20T11:16:35;45.10;46.60
21298;DHT22;10808;48.010;11.326;2023-08-20T11:19:03;45.10;49.60
21298;DHT22;10808;48.010;11.326;2023-08-20T11:21:33;45.20;51.50
21298;DHT22;10808;48.010;11.326;2023-08-20T11:24:00;45.50;50.30
21298;DHT22;10808;48.010;11.326;2023-08-20T11:26:27;45.80;50.20
21298;DHT22;10808;48.010;11.326;2023-08-20T11:28:53;45.80;45.20
21298;DHT22;10808;48.010;11.326;2023-08-20T11:31:19;45.80;50.20
21298;DHT22;10808;48.010;11.326;2023-08-20T11:33:45;46.30;48.90
21298;DHT22;10808;48.010;11.326;2023-08-20T11:36:15;46.20;46.30
21298;DHT22;10808;48.010;11.326;2023-08-20T11:38:48;46.30;48.10
21298;DHT22;10808;48.010;11.326;2023-08-20T11:41:14;46.70;47.10
21298;DHT22;10808;48.010;11.326;2023-08-20T11:43:41;46.70;46.00
21298;DHT22;10808;48.010;11.326;2023-08-20T11:46:13;47.00;47.70
21298;DHT22;10808;48.010;11.326;2023-08-20T11:51:27;47.10;47.00
21298;DHT22;10808;48.010;11.326;2023-08-20T11:53:53;46.80;45.10
21298;DHT22;10808;48.010;11.326;2023-08-20T11:56:19;46.70;46.90
21298;DHT22;10808;48.010;11.326;2023-08-20T11:58:59;46.70;44.60
21298;DHT22;10808;48.010;11.326;2023-08-20T12:01:25;45.80;44.20
21298;DHT22;10808;48.010;11.326;2023-08-20T12:03:51;45.70;44.90
21298;DHT22;10808;48.010;11.326;2023-08-20T12:06:21;45.80;47.80
21298;DHT22;10808;48.010;11.326;2023-08-20T12:08:50;46.20;46.40
21298;DHT22;10808;48.010;11.326;2023-08-20T12:11:16;46.40;47.50
21298;DHT22;10808;48.010;11.326;2023-08-20T12:13:42;46.70;47.30
21298;DHT22;10808;48.010;11.326;2023-08-20T12:16:08;46.90;46.60
21298;DHT22;10808;48.010;11.326;2023-08-20T12:18:34;47.10;45.40
21298;DHT22;10808;48.010;11.326;2023-08-20T12:21:01;47.10;46.00
21298;DHT22;10808;48.010;11.326;2023-08-20T12:23:28;47.20;45.00
21298;DHT22;10808;48.010;11.326;2023-08-20T12:25:54;47.30;46.60
21298;DHT22;10808;48.010;11.326;2023-08-20T12:28:20;47.30;41.00
21298;DHT22;10808;48.010;11.326;2023-08-20T12:30:46;47.10;46.00
21298;DHT22;10808;48.010;11.326;2023-08-20T12:33:12;47.20;46.60
21298;DHT22;10808;48.010;11.326;2023-08-20T12:35:38;47.40;42.90
21298;DHT22;10808;48.010;11.326;2023-08-20T12:38:04;47.20;44.40
21298;DHT22;10808;48.010;11.326;2023-08-20T12:40:30;47.10;42.30
21298;DHT22;10808;48.010;11.326;2023-08-20T12:42:56;47.10;45.40
21298;DHT22;10808;48.010;11.326;2023-08-20T12:45:23;47.50;46.40
21298;DHT22;10808;48.010;11.326;2023-08-20T12:47:49;47.60;43.70
21298;DHT22;10808;48.010;11.326;2023-08-20T12:50:15;47.50;43.10
21298;DHT22;10808;48.010;11.326;2023-08-20T12:52:41;47.40;44.20
21298;DHT22;10808;48.010;11.326;2023-08-20T12:55:08;47.40;45.30
21298;DHT22;10808;48.010;11.326;2023-08-20T12:57:35;47.60;44.60
21298;DHT22;10808;48.010;11.326;2023-08-20T13:00:04;47.90;44.90
21298;DHT22;10808;48.010;11.326;2023-08-20T13:02:37;48.00;42.70
21298;DHT22;10808;48.010;11.326;2023-08-20T13:05:03;47.80;43.80
21298;DHT22;10808;48.010;11.326;2023-08-20T13:07:31;47.60;42.60
21298;DHT22;10808;48.010;11.326;2023-08-20T13:09:57;47.50;42.60
21298;DHT22;10808;48.010;11.326;2023-08-20T13:12:25;47.50;44.40
21298;DHT22;10808;48.010;11.326;2023-08-20T13:14:52;47.90;46.00
21298;DHT22;10808;48.010;11.326;2023-08-20T13:17:19;48.00;42.60
21298;DHT22;10808;48.010;11.326;2023-08-20T13:19:45;47.90;41.40
21298;DHT22;10808;48.010;11.326;2023-08-20T13:22:11;47.60;43.30
21298;DHT22;10808;48.010;11.326;2023-08-20T13:24:37;47.60;40.90
21298;DHT22;10808;48.010;11.326;2023-08-20T13:27:03;47.50;42.80
21298;DHT22;10808;48.010;11.326;2023-08-20T13:29:29;47.70;44.70
21298;DHT22;10808;48.010;11.326;2023-08-20T13:31:55;47.70;43.20
21298;DHT22;10808;48.010;11.326;2023-08-20T13:34:21;47.60;42.70
21298;DHT22;10808;48.010;11.326;2023-08-20T13:36:47;47.80;42.60
21298;DHT22;10808;48.010;11.326;2023-08-20T13:39:14;47.90;43.80
21298;DHT22;10808;48.010;11.326;2023-08-20T13:41:41;47.70;42.00
21298;DHT22;10808;48.010;11.326;2023-08-20T13:44:07;47.80;43.40
21298;DHT22;10808;48.010;11.326;2023-08-20T13:46:35;47.90;42.80
21298;DHT22;10808;48.010;11.326;2023-08-20T13:49:02;47.90;41.10
21298;DHT22;10808;48.010;11.326;2023-08-20T13:51:29;47.90;43.10
21298;DHT22;10808;48.010;11.326;2023-08-20T13:53:56;47.70;40.50
21298;DHT22;10808;48.010;11.326;2023-08-20T13:56:22;47.30;42.20
21298;DHT22;10808;48.010;11.326;2023-08-20T13:58:48;47.00;44.10
21298;DHT22;10808;48.010;11.326;2023-08-20T14:01:14;47.10;45.50
21298;DHT22;10808;48.010;11.326;2023-08-20T14:03:40;47.20;45.30
21298;DHT22;10808;48.010;11.326;2023-08-20T14:06:06;47.10;44.40
21298;DHT22;10808;48.010;11.326;2023-08-20T14:08:32;47.00;45.00
21298;DHT22;10808;48.010;11.326;2023-08-20T14:10:58;47.10;42.60
21298;DHT22;10808;48.010;11.326;2023-08-20T14:13:24;46.80;42.30
21298;DHT22;10808;48.010;11.326;2023-08-20T14:15:50;46.70;41.80
21298;DHT22;10808;48.010;11.326;2023-08-20T14:18:16;46.60;43.40
21298;DHT22;10808;48.010;11.326;2023-08-20T14:20:42;46.80;44.00
21298;DHT22;10808;48.010;11.326;2023-08-20T14:23:08;46.70;44.30
21298;DHT22;10808;48.010;11.326;2023-08-20T14:25:34;46.30;44.80
21298;DHT22;10808;48.010;11.326;2023-08-20T14:28:01;46.30;46.10
21298;DHT22;10808;48.010;11.326;2023-08-20T14:30:27;46.40;44.10
21298;DHT22;10808;48.010;11.326;2023-08-20T14:32:53;46.10;43.60
21298;DHT22;10808;48.010;11.326;2023-08-20T14:35:19;45.80;43.20
21298;DHT22;10808;48.010;11.326;2023-08-20T14:37:45;45.80;45.40
21298;DHT22;10808;48.010;11.326;2023-08-20T14:40:11;45.90;45.50
21298;DHT22;10808;48.010;11.326;2023-08-20T14:42:38;45.80;42.20
21298;DHT22;10808;48.010;11.326;2023-08-20T14:45:04;45.50;43.80
21298;DHT22;10808;48.010;11.326;2023-08-20T14:47:31;45.60;44.80
21298;DHT22;10808;48.010;11.326;2023-08-20T14:49:57;45.60;44.80
21298;DHT22;10808;48.010;11.326;2023-08-20T14:52:23;45.70;42.80
21298;DHT22;10808;48.010;11.326;2023-08-20T14:54:49;45.50;46.40
21298;DHT22;10808;48.010;11.326;2023-08-20T14:57:15;45.60;44.60
21298;DHT22;10808;48.010;11.326;2023-08-20T14:59:43;45.40;44.00
21298;DHT22;10808;48.010;11.326;2023-08-20T15:02:09;45.40;45.10
21298;DHT22;10808;48.010;11.326;2023-08-20T15:04:35;45.40;45.40
21298;DHT22;10808;48.010;11.326;2023-08-20T15:07:01;45.40;44.80
21298;DHT22;10808;48.010;11.326;2023-08-20T15:09:29;45.40;46.40
21298;DHT22;10808;48.010;11.326;2023-08-20T15:11:55;45.40;45.20
21298;DHT22;10808;48.010;11.326;2023-08-20T15:14:22;45.30;45.40
21298;DHT22;10808;48.010;11.326;2023-08-20T15:16:48;45.20;44.60
21298;DHT22;10808;48.010;11.326;2023-08-20T15:19:14;45.20;45.10
21298;DHT22;10808;48.010;11.326;2023-08-20T15:21:40;45.30;45.90
21298;DHT22;10808;48.010;11.326;2023-08-20T15:24:06;45.10;47.90
21298;DHT22;10808;48.010;11.326;2023-08-20T15:26:32;45.00;46.40
21298;DHT22;10808;48.010;11.326;2023-08-20T15:28:59;45.00;46.50
21298;DHT22;10808;48.010;11.326;2023-08-20T15:31:25;45.00;45.30
21298;DHT22;10808;48.010;11.326;2023-08-20T15:33:53;44.70;44.00
21298;DHT22;10808;48.010;11.326;2023-08-20T15:36:19;44.20;46.50
21298;DHT22;10808;48.010;11.326;2023-08-20T15:38:45;44.10;46.70